aviador You're here:

YLRE Decoded Metar

in
Report Time2018-06-17 21:00:00
UTC Time2018-06-17 21:44:02
Flight Rules vfr VFR
Wind160° at 05 kt
W.Decomp.*RWY 22: 2.5 kt HW 4.3 kt LCW
W.Rank160° ranks 15
Current wind is below 160° avg. (8.3)
Visibility9999 m
Phenomena:N/A
Clouds:N/A
Expected CloudBase > 2,800 ft AGL from Temp-Dew spread
CeilingNone
Temp02°C
Dew Point-5°C (60% RH)
AAT-2.4°C
QNH1025 hPa
Raw Report
METAR YLRE 172100Z AUTO 16005KT 9999 // NCD 02/M05 Q1025=

Extra information for YLRE:More info

Social comments